In Rescue
 
Open Full Screen Window  High Contrast Mode
Wind Gusting 00 knots
05
September 19, 2019 5:51 PM EDT
Weather Information
Wind Direction
  110 °
Wind Speed
  05 kt (6 mph)
Wind Gust
  00 kt (0 mph)
Altimeter
30.14 in
Visibility
10 SM
Temperature
26° C
79° F
Dewpoint
16° C
61° F
Humidity
54%
Sky Condition
Clear
VFR

METAR KVLL 192151Z AUTO 11005KT 10SM CLR 26/16 A3014 RMK AO2 T02640155

FAA Disclaimer: The data displayed is for advisory purposes only and is not to be used for flight planning or operations.